sensor_id;sensor_type;location;lat;lon;timestamp;P1;durP1;ratioP1;P2;durP2;ratioP2
25810;SDS011;13645;52.460;13.910;2022-08-21T00:01:49;17.10;;;11.43;;
25810;SDS011;13645;52.460;13.910;2022-08-21T00:04:16;19.60;;;11.35;;
25810;SDS011;13645;52.460;13.910;2022-08-21T00:06:47;13.63;;;10.80;;
25810;SDS011;13645;52.460;13.910;2022-08-21T00:09:15;14.05;;;11.30;;
25810;SDS011;13645;52.460;13.910;2022-08-21T00:11:42;14.23;;;10.50;;
25810;SDS011;13645;52.460;13.910;2022-08-21T00:14:09;17.23;;;11.20;;
25810;SDS011;13645;52.460;13.910;2022-08-21T00:16:37;14.70;;;11.30;;
25810;SDS011;13645;52.460;13.910;2022-08-21T00:19:05;15.18;;;10.75;;
25810;SDS011;13645;52.460;13.910;2022-08-21T00:21:32;14.50;;;11.15;;
25810;SDS011;13645;52.460;13.910;2022-08-21T00:24:00;16.20;;;11.05;;
25810;SDS011;13645;52.460;13.910;2022-08-21T00:26:27;15.43;;;10.82;;
25810;SDS011;13645;52.460;13.910;2022-08-21T00:28:54;11.85;;;10.07;;
25810;SDS011;13645;52.460;13.910;2022-08-21T00:31:23;12.20;;;10.27;;
25810;SDS011;13645;52.460;13.910;2022-08-21T00:33:50;15.70;;;10.40;;
25810;SDS011;13645;52.460;13.910;2022-08-21T00:36:25;14.10;;;10.30;;
25810;SDS011;13645;52.460;13.910;2022-08-21T00:38:52;14.82;;;10.55;;
25810;SDS011;13645;52.460;13.910;2022-08-21T00:41:19;15.82;;;10.52;;
25810;SDS011;13645;52.460;13.910;2022-08-21T00:46:31;14.18;;;9.65;;
25810;SDS011;13645;52.460;13.910;2022-08-21T00:48:58;13.27;;;10.15;;
25810;SDS011;13645;52.460;13.910;2022-08-21T00:51:27;13.38;;;10.35;;
25810;SDS011;13645;52.460;13.910;2022-08-21T00:54:03;15.38;;;10.13;;
25810;SDS011;13645;52.460;13.910;2022-08-21T00:56:38;17.73;;;10.15;;
25810;SDS011;13645;52.460;13.910;2022-08-21T00:59:08;12.45;;;9.35;;
25810;SDS011;13645;52.460;13.910;2022-08-21T01:01:36;12.90;;;9.55;;
25810;SDS011;13645;52.460;13.910;2022-08-21T01:04:03;13.57;;;10.48;;
25810;SDS011;13645;52.460;13.910;2022-08-21T01:06:30;11.02;;;9.63;;
25810;SDS011;13645;52.460;13.910;2022-08-21T01:08:57;12.70;;;9.70;;
25810;SDS011;13645;52.460;13.910;2022-08-21T01:11:24;14.10;;;9.73;;
25810;SDS011;13645;52.460;13.910;2022-08-21T01:13:51;14.32;;;9.25;;
25810;SDS011;13645;52.460;13.910;2022-08-21T01:16:19;14.27;;;9.45;;
25810;SDS011;13645;52.460;13.910;2022-08-21T01:18:50;14.02;;;8.85;;
25810;SDS011;13645;52.460;13.910;2022-08-21T01:21:24;15.20;;;9.45;;
25810;SDS011;13645;52.460;13.910;2022-08-21T01:23:54;14.57;;;9.10;;
25810;SDS011;13645;52.460;13.910;2022-08-21T01:26:27;10.20;;;9.10;;
25810;SDS011;13645;52.460;13.910;2022-08-21T01:29:15;11.70;;;8.80;;
25810;SDS011;13645;52.460;13.910;2022-08-21T01:31:46;13.23;;;8.38;;
25810;SDS011;13645;52.460;13.910;2022-08-21T01:34:13;13.38;;;8.45;;
25810;SDS011;13645;52.460;13.910;2022-08-21T01:36:42;12.25;;;8.60;;
25810;SDS011;13645;52.460;13.910;2022-08-21T01:39:10;11.40;;;8.02;;
25810;SDS011;13645;52.460;13.910;2022-08-21T01:41:38;10.63;;;8.45;;
25810;SDS011;13645;52.460;13.910;2022-08-21T01:44:05;10.77;;;7.53;;
25810;SDS011;13645;52.460;13.910;2022-08-21T01:46:32;15.05;;;7.32;;
25810;SDS011;13645;52.460;13.910;2022-08-21T01:48:59;9.88;;;6.97;;
25810;SDS011;13645;52.460;13.910;2022-08-21T01:51:26;10.15;;;6.80;;
25810;SDS011;13645;52.460;13.910;2022-08-21T01:53:54;12.77;;;6.78;;
25810;SDS011;13645;52.460;13.910;2022-08-21T01:56:21;12.25;;;6.60;;
25810;SDS011;13645;52.460;13.910;2022-08-21T01:58:48;13.60;;;6.47;;
25810;SDS011;13645;52.460;13.910;2022-08-21T02:01:16;14.02;;;6.60;;
25810;SDS011;13645;52.460;13.910;2022-08-21T02:03:43;7.45;;;6.68;;
25810;SDS011;13645;52.460;13.910;2022-08-21T02:06:14;13.73;;;7.25;;
25810;SDS011;13645;52.460;13.910;2022-08-21T02:08:46;12.82;;;6.30;;
25810;SDS011;13645;52.460;13.910;2022-08-21T02:11:14;11.18;;;6.93;;
25810;SDS011;13645;52.460;13.910;2022-08-21T02:13:41;11.55;;;6.18;;
25810;SDS011;13645;52.460;13.910;2022-08-21T02:16:10;14.20;;;6.50;;
25810;SDS011;13645;52.460;13.910;2022-08-21T02:18:44;11.95;;;6.50;;
25810;SDS011;13645;52.460;13.910;2022-08-21T02:21:12;9.27;;;5.95;;
25810;SDS011;13645;52.460;13.910;2022-08-21T02:23:41;9.45;;;5.57;;
25810;SDS011;13645;52.460;13.910;2022-08-21T02:26:08;14.30;;;5.90;;
25810;SDS011;13645;52.460;13.910;2022-08-21T02:28:37;8.57;;;5.93;;
25810;SDS011;13645;52.460;13.910;2022-08-21T02:31:05;14.10;;;6.30;;
25810;SDS011;13645;52.460;13.910;2022-08-21T02:33:35;9.57;;;5.65;;
25810;SDS011;13645;52.460;13.910;2022-08-21T02:36:04;8.95;;;5.40;;
25810;SDS011;13645;52.460;13.910;2022-08-21T02:38:32;9.82;;;5.53;;
25810;SDS011;13645;52.460;13.910;2022-08-21T02:41:07;9.63;;;5.70;;
25810;SDS011;13645;52.460;13.910;2022-08-21T02:43:44;14.10;;;5.93;;
25810;SDS011;13645;52.460;13.910;2022-08-21T02:46:20;10.75;;;5.55;;
25810;SDS011;13645;52.460;13.910;2022-08-21T02:48:58;14.30;;;5.68;;
25810;SDS011;13645;52.460;13.910;2022-08-21T02:51:25;8.55;;;5.00;;
25810;SDS011;13645;52.460;13.910;2022-08-21T02:53:54;10.98;;;5.75;;
25810;SDS011;13645;52.460;13.910;2022-08-21T02:56:21;8.23;;;5.15;;
25810;SDS011;13645;52.460;13.910;2022-08-21T02:58:49;9.85;;;5.22;;
25810;SDS011;13645;52.460;13.910;2022-08-21T03:01:19;13.05;;;5.78;;
25810;SDS011;13645;52.460;13.910;2022-08-21T03:03:47;8.00;;;4.60;;
25810;SDS011;13645;52.460;13.910;2022-08-21T03:06:18;10.05;;;5.72;;
25810;SDS011;13645;52.460;13.910;2022-08-21T03:08:46;9.90;;;5.30;;
25810;SDS011;13645;52.460;13.910;2022-08-21T03:11:14;10.50;;;5.13;;
25810;SDS011;13645;52.460;13.910;2022-08-21T03:13:41;9.90;;;4.97;;
25810;SDS011;13645;52.460;13.910;2022-08-21T03:16:08;6.70;;;4.60;;
25810;SDS011;13645;52.460;13.910;2022-08-21T03:18:36;7.35;;;4.68;;
25810;SDS011;13645;52.460;13.910;2022-08-21T03:21:05;8.25;;;4.40;;
25810;SDS011;13645;52.460;13.910;2022-08-21T03:23:34;7.93;;;4.18;;
25810;SDS011;13645;52.460;13.910;2022-08-21T03:26:08;8.10;;;4.20;;
25810;SDS011;13645;52.460;13.910;2022-08-21T03:28:57;13.20;;;4.22;;
25810;SDS011;13645;52.460;13.910;2022-08-21T03:31:24;9.85;;;3.78;;
25810;SDS011;13645;52.460;13.910;2022-08-21T03:33:55;6.63;;;3.90;;
25810;SDS011;13645;52.460;13.910;2022-08-21T03:36:22;7.93;;;3.85;;
25810;SDS011;13645;52.460;13.910;2022-08-21T03:38:50;12.27;;;3.80;;
25810;SDS011;13645;52.460;13.910;2022-08-21T03:41:17;9.10;;;3.33;;
25810;SDS011;13645;52.460;13.910;2022-08-21T03:43:46;10.18;;;4.00;;
25810;SDS011;13645;52.460;13.910;2022-08-21T03:46:13;10.40;;;3.58;;
25810;SDS011;13645;52.460;13.910;2022-08-21T03:48:40;8.90;;;3.83;;
25810;SDS011;13645;52.460;13.910;2022-08-21T03:51:07;8.02;;;3.08;;
25810;SDS011;13645;52.460;13.910;2022-08-21T03:53:34;9.02;;;3.40;;
25810;SDS011;13645;52.460;13.910;2022-08-21T03:56:02;7.68;;;3.50;;
25810;SDS011;13645;52.460;13.910;2022-08-21T03:58:29;8.65;;;3.55;;
25810;SDS011;13645;52.460;13.910;2022-08-21T04:00:57;7.40;;;3.28;;
25810;SDS011;13645;52.460;13.910;2022-08-21T04:03:25;10.77;;;3.47;;
25810;SDS011;13645;52.460;13.910;2022-08-21T04:05:53;9.93;;;3.40;;
25810;SDS011;13645;52.460;13.910;2022-08-21T04:08:20;10.20;;;3.40;;
25810;SDS011;13645;52.460;13.910;2022-08-21T04:10:47;11.38;;;3.50;;
25810;SDS011;13645;52.460;13.910;2022-08-21T04:13:16;9.30;;;3.63;;
25810;SDS011;13645;52.460;13.910;2022-08-21T04:15:43;7.55;;;3.10;;
25810;SDS011;13645;52.460;13.910;2022-08-21T04:18:10;14.27;;;3.92;;
25810;SDS011;13645;52.460;13.910;2022-08-21T04:20:37;7.78;;;3.33;;
25810;SDS011;13645;52.460;13.910;2022-08-21T04:23:05;8.10;;;3.78;;
25810;SDS011;13645;52.460;13.910;2022-08-21T04:25:33;10.88;;;3.70;;
25810;SDS011;13645;52.460;13.910;2022-08-21T04:28:00;6.93;;;3.85;;
25810;SDS011;13645;52.460;13.910;2022-08-21T04:30:27;9.43;;;3.45;;
25810;SDS011;13645;52.460;13.910;2022-08-21T04:32:55;9.50;;;3.65;;
25810;SDS011;13645;52.460;13.910;2022-08-21T04:35:24;12.68;;;3.67;;
25810;SDS011;13645;52.460;13.910;2022-08-21T04:37:52;15.18;;;3.40;;
25810;SDS011;13645;52.460;13.910;2022-08-21T04:40:20;6.70;;;3.28;;
25810;SDS011;13645;52.460;13.910;2022-08-21T04:42:51;11.68;;;3.47;;
25810;SDS011;13645;52.460;13.910;2022-08-21T04:45:30;9.32;;;3.50;;
25810;SDS011;13645;52.460;13.910;2022-08-21T04:48:00;8.93;;;3.67;;
25810;SDS011;13645;52.460;13.910;2022-08-21T04:50:35;13.73;;;3.75;;
25810;SDS011;13645;52.460;13.910;2022-08-21T04:53:18;8.57;;;3.20;;
25810;SDS011;13645;52.460;13.910;2022-08-21T04:55:50;13.10;;;3.85;;
25810;SDS011;13645;52.460;13.910;2022-08-21T04:58:21;13.90;;;4.05;;
25810;SDS011;13645;52.460;13.910;2022-08-21T05:00:53;10.33;;;3.30;;
25810;SDS011;13645;52.460;13.910;2022-08-21T05:03:21;11.38;;;3.38;;
25810;SDS011;13645;52.460;13.910;2022-08-21T05:05:48;14.10;;;3.38;;
25810;SDS011;13645;52.460;13.910;2022-08-21T05:08:16;13.57;;;3.38;;
25810;SDS011;13645;52.460;13.910;2022-08-21T05:10:45;10.00;;;3.17;;
25810;SDS011;13645;52.460;13.910;2022-08-21T05:13:12;6.88;;;3.03;;
25810;SDS011;13645;52.460;13.910;2022-08-21T05:15:39;11.73;;;3.17;;
25810;SDS011;13645;52.460;13.910;2022-08-21T05:18:06;10.38;;;3.38;;
25810;SDS011;13645;52.460;13.910;2022-08-21T05:20:33;7.07;;;3.03;;
25810;SDS011;13645;52.460;13.910;2022-08-21T05:23:09;11.27;;;3.55;;
25810;SDS011;13645;52.460;13.910;2022-08-21T05:25:38;11.38;;;3.05;;
25810;SDS011;13645;52.460;13.910;2022-08-21T05:28:06;13.48;;;3.75;;
25810;SDS011;13645;52.460;13.910;2022-08-21T05:30:33;12.43;;;3.53;;
25810;SDS011;13645;52.460;13.910;2022-08-21T05:33:01;9.52;;;2.92;;
25810;SDS011;13645;52.460;13.910;2022-08-21T05:35:30;14.85;;;3.38;;
25810;SDS011;13645;52.460;13.910;2022-08-21T05:37:58;10.90;;;3.20;;
25810;SDS011;13645;52.460;13.910;2022-08-21T05:40:26;12.25;;;3.40;;
25810;SDS011;13645;52.460;13.910;2022-08-21T05:42:53;13.40;;;3.58;;
25810;SDS011;13645;52.460;13.910;2022-08-21T05:45:23;10.70;;;3.40;;
25810;SDS011;13645;52.460;13.910;2022-08-21T05:48:22;10.13;;;3.13;;
25810;SDS011;13645;52.460;13.910;2022-08-21T05:50:51;9.32;;;3.17;;
25810;SDS011;13645;52.460;13.910;2022-08-21T05:53:19;14.93;;;3.08;;
25810;SDS011;13645;52.460;13.910;2022-08-21T05:55:46;9.98;;;2.90;;
25810;SDS011;13645;52.460;13.910;2022-08-21T05:58:14;12.10;;;3.45;;
25810;SDS011;13645;52.460;13.910;2022-08-21T06:00:43;11.95;;;3.58;;
25810;SDS011;13645;52.460;13.910;2022-08-21T06:03:18;14.57;;;3.47;;
25810;SDS011;13645;52.460;13.910;2022-08-21T06:05:50;12.32;;;3.58;;
25810;SDS011;13645;52.460;13.910;2022-08-21T06:08:19;11.65;;;2.90;;
25810;SDS011;13645;52.460;13.910;2022-08-21T06:10:46;6.63;;;2.42;;
25810;SDS011;13645;52.460;13.910;2022-08-21T06:13:15;9.20;;;2.80;;
25810;SDS011;13645;52.460;13.910;2022-08-21T06:15:43;9.25;;;3.40;;
25810;SDS011;13645;52.460;13.910;2022-08-21T06:18:10;7.82;;;3.03;;
25810;SDS011;13645;52.460;13.910;2022-08-21T06:20:38;12.85;;;3.30;;
25810;SDS011;13645;52.460;13.910;2022-08-21T06:23:05;8.15;;;3.28;;
25810;SDS011;13645;52.460;13.910;2022-08-21T06:25:32;9.27;;;3.42;;
25810;SDS011;13645;52.460;13.910;2022-08-21T06:28:06;8.90;;;3.35;;
25810;SDS011;13645;52.460;13.910;2022-08-21T06:30:35;20.17;;;13.60;;
25810;SDS011;13645;52.460;13.910;2022-08-21T06:33:03;9.45;;;3.90;;
25810;SDS011;13645;52.460;13.910;2022-08-21T06:35:30;11.38;;;3.88;;
25810;SDS011;13645;52.460;13.910;2022-08-21T06:37:57;10.23;;;3.78;;
25810;SDS011;13645;52.460;13.910;2022-08-21T06:40:27;11.90;;;3.75;;
25810;SDS011;13645;52.460;13.910;2022-08-21T06:43:07;8.13;;;3.42;;
25810;SDS011;13645;52.460;13.910;2022-08-21T06:45:41;9.13;;;3.10;;
25810;SDS011;13645;52.460;13.910;2022-08-21T06:48:08;8.38;;;2.90;;
25810;SDS011;13645;52.460;13.910;2022-08-21T06:50:35;11.00;;;3.42;;
25810;SDS011;13645;52.460;13.910;2022-08-21T06:53:04;9.13;;;3.00;;
25810;SDS011;13645;52.460;13.910;2022-08-21T06:55:33;10.45;;;3.22;;
25810;SDS011;13645;52.460;13.910;2022-08-21T06:58:00;8.52;;;2.92;;
25810;SDS011;13645;52.460;13.910;2022-08-21T07:00:27;10.32;;;2.33;;
25810;SDS011;13645;52.460;13.910;2022-08-21T07:02:54;6.72;;;2.50;;
25810;SDS011;13645;52.460;13.910;2022-08-21T07:05:21;8.05;;;2.75;;
25810;SDS011;13645;52.460;13.910;2022-08-21T07:07:48;11.43;;;2.78;;
25810;SDS011;13645;52.460;13.910;2022-08-21T07:10:15;13.35;;;2.40;;
25810;SDS011;13645;52.460;13.910;2022-08-21T07:12:47;13.75;;;2.60;;
25810;SDS011;13645;52.460;13.910;2022-08-21T07:15:15;12.02;;;2.67;;
25810;SDS011;13645;52.460;13.910;2022-08-21T07:17:42;8.45;;;2.10;;
25810;SDS011;13645;52.460;13.910;2022-08-21T07:20:09;10.82;;;3.60;;
25810;SDS011;13645;52.460;13.910;2022-08-21T07:22:38;7.85;;;2.50;;
25810;SDS011;13645;52.460;13.910;2022-08-21T07:25:07;37.22;;;25.00;;
25810;SDS011;13645;52.460;13.910;2022-08-21T07:27:34;17.58;;;2.60;;
25810;SDS011;13645;52.460;13.910;2022-08-21T07:30:00;7.95;;;2.47;;
25810;SDS011;13645;52.460;13.910;2022-08-21T07:32:27;11.73;;;2.05;;
25810;SDS011;13645;52.460;13.910;2022-08-21T07:34:54;8.75;;;2.35;;
25810;SDS011;13645;52.460;13.910;2022-08-21T07:37:21;9.02;;;2.40;;
25810;SDS011;13645;52.460;13.910;2022-08-21T07:39:47;8.23;;;2.75;;
25810;SDS011;13645;52.460;13.910;2022-08-21T07:42:15;9.95;;;2.42;;
25810;SDS011;13645;52.460;13.910;2022-08-21T07:44:42;8.80;;;2.25;;
25810;SDS011;13645;52.460;13.910;2022-08-21T07:47:09;6.60;;;2.17;;
25810;SDS011;13645;52.460;13.910;2022-08-21T07:49:36;10.55;;;2.40;;
25810;SDS011;13645;52.460;13.910;2022-08-21T07:52:02;8.88;;;2.63;;
25810;SDS011;13645;52.460;13.910;2022-08-21T07:54:29;8.63;;;2.22;;
25810;SDS011;13645;52.460;13.910;2022-08-21T07:57:14;10.48;;;2.17;;
25810;SDS011;13645;52.460;13.910;2022-08-21T07:59:52;8.50;;;2.22;;
25810;SDS011;13645;52.460;13.910;2022-08-21T08:02:23;11.75;;;2.10;;
25810;SDS011;13645;52.460;13.910;2022-08-21T08:04:51;13.57;;;2.30;;
25810;SDS011;13645;52.460;13.910;2022-08-21T08:07:18;15.38;;;2.58;;
25810;SDS011;13645;52.460;13.910;2022-08-21T08:09:45;19.42;;;2.42;;
25810;SDS011;13645;52.460;13.910;2022-08-21T08:12:12;13.48;;;1.45;;
25810;SDS011;13645;52.460;13.910;2022-08-21T08:14:39;8.73;;;2.20;;
25810;SDS011;13645;52.460;13.910;2022-08-21T08:17:06;9.52;;;2.13;;
25810;SDS011;13645;52.460;13.910;2022-08-21T08:19:33;6.93;;;2.10;;
25810;SDS011;13645;52.460;13.910;2022-08-21T08:22:00;8.07;;;1.80;;
25810;SDS011;13645;52.460;13.910;2022-08-21T08:24:27;12.18;;;2.63;;
25810;SDS011;13645;52.460;13.910;2022-08-21T08:26:53;9.77;;;1.83;;
25810;SDS011;13645;52.460;13.910;2022-08-21T08:29:22;5.30;;;1.90;;
25810;SDS011;13645;52.460;13.910;2022-08-21T08:31:49;8.73;;;2.13;;
25810;SDS011;13645;52.460;13.910;2022-08-21T08:34:16;8.48;;;2.05;;
25810;SDS011;13645;52.460;13.910;2022-08-21T08:36:50;5.35;;;1.95;;
25810;SDS011;13645;52.460;13.910;2022-08-21T08:39:17;8.68;;;2.10;;
25810;SDS011;13645;52.460;13.910;2022-08-21T08:41:56;9.68;;;3.05;;
25810;SDS011;13645;52.460;13.910;2022-08-21T08:47:28;9.77;;;2.00;;
25810;SDS011;13645;52.460;13.910;2022-08-21T08:50:33;8.13;;;2.17;;
25810;SDS011;13645;52.460;13.910;2022-08-21T08:52:57;10.40;;;2.20;;
25810;SDS011;13645;52.460;13.910;2022-08-21T08:55:33;5.50;;;1.70;;
25810;SDS011;13645;52.460;13.910;2022-08-21T08:58:03;7.57;;;1.50;;
25810;SDS011;13645;52.460;13.910;2022-08-21T09:00:30;5.88;;;1.92;;
25810;SDS011;13645;52.460;13.910;2022-08-21T09:02:59;6.07;;;2.00;;
25810;SDS011;13645;52.460;13.910;2022-08-21T09:05:29;9.35;;;2.13;;
25810;SDS011;13645;52.460;13.910;2022-08-21T09:16:37;24.90;;;2.88;;
25810;SDS011;13645;52.460;13.910;2022-08-21T09:19:39;9.00;;;2.15;;
25810;SDS011;13645;52.460;13.910;2022-08-21T09:25:23;11.68;;;1.80;;
25810;SDS011;13645;52.460;13.910;2022-08-21T09:27:52;6.38;;;1.63;;
25810;SDS011;13645;52.460;13.910;2022-08-21T09:30:23;8.63;;;1.80;;
25810;SDS011;13645;52.460;13.910;2022-08-21T09:32:56;10.63;;;2.10;;
25810;SDS011;13645;52.460;13.910;2022-08-21T09:35:24;6.88;;;1.60;;
25810;SDS011;13645;52.460;13.910;2022-08-21T09:37:58;6.75;;;1.70;;
25810;SDS011;13645;52.460;13.910;2022-08-21T09:40:42;6.57;;;1.83;;
25810;SDS011;13645;52.460;13.910;2022-08-21T09:45:41;5.82;;;1.75;;
25810;SDS011;13645;52.460;13.910;2022-08-21T09:52:00;9.98;;;1.65;;
25810;SDS011;13645;52.460;13.910;2022-08-21T09:54:30;8.10;;;1.77;;
25810;SDS011;13645;52.460;13.910;2022-08-21T09:57:03;6.63;;;1.98;;
25810;SDS011;13645;52.460;13.910;2022-08-21T09:59:54;8.80;;;1.85;;
25810;SDS011;13645;52.460;13.910;2022-08-21T10:02:30;6.32;;;2.00;;
25810;SDS011;13645;52.460;13.910;2022-08-21T10:05:04;9.13;;;1.80;;
25810;SDS011;13645;52.460;13.910;2022-08-21T10:07:36;6.78;;;1.90;;
25810;SDS011;13645;52.460;13.910;2022-08-21T10:18:13;5.78;;;1.75;;
25810;SDS011;13645;52.460;13.910;2022-08-21T10:20:45;7.13;;;1.80;;
25810;SDS011;13645;52.460;13.910;2022-08-21T10:29:59;8.65;;;1.70;;
25810;SDS011;13645;52.460;13.910;2022-08-21T10:35:10;6.05;;;1.92;;
25810;SDS011;13645;52.460;13.910;2022-08-21T10:37:48;7.00;;;1.60;;
25810;SDS011;13645;52.460;13.910;2022-08-21T10:40:22;4.28;;;1.75;;
25810;SDS011;13645;52.460;13.910;2022-08-21T10:55:14;7.10;;;2.03;;
25810;SDS011;13645;52.460;13.910;2022-08-21T11:00:42;5.55;;;1.80;;
25810;SDS011;13645;52.460;13.910;2022-08-21T11:06:13;4.30;;;1.67;;
25810;SDS011;13645;52.460;13.910;2022-08-21T11:08:45;8.15;;;1.65;;
25810;SDS011;13645;52.460;13.910;2022-08-21T11:14:39;7.25;;;1.73;;
25810;SDS011;13645;52.460;13.910;2022-08-21T11:17:16;6.95;;;1.90;;
25810;SDS011;13645;52.460;13.910;2022-08-21T11:20:03;4.82;;;1.70;;
25810;SDS011;13645;52.460;13.910;2022-08-21T11:25:35;4.60;;;1.40;;
25810;SDS011;13645;52.460;13.910;2022-08-21T11:36:30;10.18;;;1.80;;
25810;SDS011;13645;52.460;13.910;2022-08-21T11:39:12;7.35;;;2.17;;
25810;SDS011;13645;52.460;13.910;2022-08-21T11:50:41;5.82;;;1.58;;
25810;SDS011;13645;52.460;13.910;2022-08-21T11:56:10;4.15;;;1.50;;
25810;SDS011;13645;52.460;13.910;2022-08-21T11:58:45;6.40;;;1.55;;
25810;SDS011;13645;52.460;13.910;2022-08-21T12:01:16;6.07;;;1.85;;
25810;SDS011;13645;52.460;13.910;2022-08-21T12:03:53;7.78;;;1.80;;
25810;SDS011;13645;52.460;13.910;2022-08-21T12:06:30;6.97;;;1.60;;
25810;SDS011;13645;52.460;13.910;2022-08-21T12:09:04;7.63;;;1.83;;
25810;SDS011;13645;52.460;13.910;2022-08-21T12:11:43;6.63;;;1.58;;
25810;SDS011;13645;52.460;13.910;2022-08-21T12:14:18;5.35;;;1.35;;
25810;SDS011;13645;52.460;13.910;2022-08-21T12:16:46;6.57;;;1.67;;
25810;SDS011;13645;52.460;13.910;2022-08-21T12:34:34;5.32;;;1.65;;
25810;SDS011;13645;52.460;13.910;2022-08-21T12:37:14;5.97;;;1.60;;
25810;SDS011;13645;52.460;13.910;2022-08-21T12:42:46;5.82;;;1.40;;
25810;SDS011;13645;52.460;13.910;2022-08-21T12:45:31;7.60;;;1.60;;
25810;SDS011;13645;52.460;13.910;2022-08-21T12:56:31;7.32;;;1.98;;
25810;SDS011;13645;52.460;13.910;2022-08-21T12:59:01;3.90;;;1.40;;
25810;SDS011;13645;52.460;13.910;2022-08-21T13:01:33;4.22;;;1.58;;
25810;SDS011;13645;52.460;13.910;2022-08-21T13:04:11;4.88;;;1.65;;
25810;SDS011;13645;52.460;13.910;2022-08-21T13:06:45;5.90;;;1.30;;
25810;SDS011;13645;52.460;13.910;2022-08-21T13:09:18;6.47;;;1.70;;
25810;SDS011;13645;52.460;13.910;2022-08-21T13:11:50;5.18;;;1.40;;
25810;SDS011;13645;52.460;13.910;2022-08-21T13:16:57;6.05;;;1.65;;
25810;SDS011;13645;52.460;13.910;2022-08-21T13:19:25;8.70;;;1.67;;
25810;SDS011;13645;52.460;13.910;2022-08-21T13:21:52;3.72;;;1.48;;
25810;SDS011;13645;52.460;13.910;2022-08-21T13:24:21;7.53;;;1.70;;
25810;SDS011;13645;52.460;13.910;2022-08-21T13:27:19;5.90;;;1.67;;
25810;SDS011;13645;52.460;13.910;2022-08-21T13:30:09;4.40;;;1.55;;
25810;SDS011;13645;52.460;13.910;2022-08-21T13:32:44;7.40;;;1.38;;
25810;SDS011;13645;52.460;13.910;2022-08-21T13:35:17;8.77;;;2.03;;
25810;SDS011;13645;52.460;13.910;2022-08-21T13:37:47;5.55;;;1.60;;
25810;SDS011;13645;52.460;13.910;2022-08-21T13:40:25;5.65;;;1.75;;
25810;SDS011;13645;52.460;13.910;2022-08-21T13:42:55;3.45;;;1.35;;
25810;SDS011;13645;52.460;13.910;2022-08-21T13:45:25;4.80;;;1.50;;
25810;SDS011;13645;52.460;13.910;2022-08-21T13:47:57;5.88;;;1.63;;
25810;SDS011;13645;52.460;13.910;2022-08-21T13:50:32;6.30;;;1.65;;
25810;SDS011;13645;52.460;13.910;2022-08-21T13:53:05;4.80;;;1.63;;
25810;SDS011;13645;52.460;13.910;2022-08-21T13:55:38;4.88;;;1.50;;
25810;SDS011;13645;52.460;13.910;2022-08-21T13:58:08;5.50;;;1.70;;
25810;SDS011;13645;52.460;13.910;2022-08-21T14:00:48;3.72;;;1.33;;
25810;SDS011;13645;52.460;13.910;2022-08-21T14:03:51;3.63;;;1.63;;
25810;SDS011;13645;52.460;13.910;2022-08-21T14:08:47;4.88;;;1.75;;
25810;SDS011;13645;52.460;13.910;2022-08-21T14:13:45;5.00;;;1.70;;
25810;SDS011;13645;52.460;13.910;2022-08-21T14:16:19;5.43;;;2.08;;
25810;SDS011;13645;52.460;13.910;2022-08-21T14:18:52;4.13;;;1.30;;
25810;SDS011;13645;52.460;13.910;2022-08-21T14:21:31;5.88;;;1.60;;
25810;SDS011;13645;52.460;13.910;2022-08-21T14:24:13;3.70;;;1.63;;
25810;SDS011;13645;52.460;13.910;2022-08-21T14:27:04;5.00;;;1.52;;
25810;SDS011;13645;52.460;13.910;2022-08-21T14:29:40;5.15;;;1.80;;
25810;SDS011;13645;52.460;13.910;2022-08-21T14:32:11;3.67;;;1.30;;
25810;SDS011;13645;52.460;13.910;2022-08-21T14:34:50;3.95;;;1.60;;
25810;SDS011;13645;52.460;13.910;2022-08-21T14:37:17;3.50;;;1.52;;
25810;SDS011;13645;52.460;13.910;2022-08-21T14:39:43;3.58;;;1.23;;
25810;SDS011;13645;52.460;13.910;2022-08-21T14:42:12;4.55;;;1.50;;
25810;SDS011;13645;52.460;13.910;2022-08-21T14:44:38;39.42;;;5.47;;
25810;SDS011;13645;52.460;13.910;2022-08-21T14:47:05;15.23;;;2.95;;
25810;SDS011;13645;52.460;13.910;2022-08-21T14:49:32;4.32;;;1.85;;
25810;SDS011;13645;52.460;13.910;2022-08-21T14:51:59;6.55;;;1.60;;
25810;SDS011;13645;52.460;13.910;2022-08-21T14:54:27;3.17;;;1.50;;
25810;SDS011;13645;52.460;13.910;2022-08-21T14:56:57;6.28;;;1.58;;
25810;SDS011;13645;52.460;13.910;2022-08-21T14:59:27;3.53;;;1.17;;
25810;SDS011;13645;52.460;13.910;2022-08-21T15:01:54;2.42;;;1.30;;
25810;SDS011;13645;52.460;13.910;2022-08-21T15:04:22;5.13;;;1.48;;
25810;SDS011;13645;52.460;13.910;2022-08-21T15:06:48;2.75;;;1.25;;
25810;SDS011;13645;52.460;13.910;2022-08-21T15:09:15;5.53;;;1.33;;
25810;SDS011;13645;52.460;13.910;2022-08-21T15:11:42;4.78;;;1.10;;
25810;SDS011;13645;52.460;13.910;2022-08-21T15:14:11;3.30;;;1.20;;
25810;SDS011;13645;52.460;13.910;2022-08-21T15:16:49;2.00;;;0.98;;
25810;SDS011;13645;52.460;13.910;2022-08-21T15:19:16;1.63;;;0.88;;
25810;SDS011;13645;52.460;13.910;2022-08-21T15:21:43;1.60;;;1.10;;
25810;SDS011;13645;52.460;13.910;2022-08-21T15:24:10;1.90;;;1.13;;
25810;SDS011;13645;52.460;13.910;2022-08-21T15:26:37;2.75;;;1.08;;
25810;SDS011;13645;52.460;13.910;2022-08-21T15:29:04;2.15;;;0.90;;
25810;SDS011;13645;52.460;13.910;2022-08-21T15:31:33;5.07;;;1.50;;
25810;SDS011;13645;52.460;13.910;2022-08-21T15:34:01;1.63;;;0.90;;
25810;SDS011;13645;52.460;13.910;2022-08-21T15:36:28;3.25;;;1.13;;
25810;SDS011;13645;52.460;13.910;2022-08-21T15:38:55;1.33;;;0.98;;
25810;SDS011;13645;52.460;13.910;2022-08-21T15:41:21;4.10;;;1.00;;
25810;SDS011;13645;52.460;13.910;2022-08-21T15:43:49;1.60;;;0.90;;
25810;SDS011;13645;52.460;13.910;2022-08-21T15:46:19;3.53;;;1.10;;
25810;SDS011;13645;52.460;13.910;2022-08-21T15:48:46;2.13;;;1.02;;
25810;SDS011;13645;52.460;13.910;2022-08-21T15:51:14;4.25;;;1.10;;
25810;SDS011;13645;52.460;13.910;2022-08-21T15:53:42;3.25;;;1.08;;
25810;SDS011;13645;52.460;13.910;2022-08-21T15:56:32;2.42;;;0.98;;
25810;SDS011;13645;52.460;13.910;2022-08-21T15:59:02;2.83;;;1.23;;
25810;SDS011;13645;52.460;13.910;2022-08-21T16:01:34;2.13;;;1.10;;
25810;SDS011;13645;52.460;13.910;2022-08-21T16:04:10;3.88;;;1.10;;
25810;SDS011;13645;52.460;13.910;2022-08-21T16:06:44;3.47;;;1.20;;
25810;SDS011;13645;52.460;13.910;2022-08-21T16:09:22;3.75;;;1.20;;
25810;SDS011;13645;52.460;13.910;2022-08-21T16:11:48;4.43;;;1.00;;
25810;SDS011;13645;52.460;13.910;2022-08-21T16:14:16;6.43;;;1.10;;
25810;SDS011;13645;52.460;13.910;2022-08-21T16:16:43;2.42;;;1.10;;
25810;SDS011;13645;52.460;13.910;2022-08-21T16:19:11;14.57;;;1.40;;
25810;SDS011;13645;52.460;13.910;2022-08-21T16:21:39;2.50;;;1.23;;
25810;SDS011;13645;52.460;13.910;2022-08-21T16:24:06;3.33;;;1.23;;
25810;SDS011;13645;52.460;13.910;2022-08-21T16:26:32;2.03;;;0.98;;
25810;SDS011;13645;52.460;13.910;2022-08-21T16:29:00;2.92;;;1.27;;
25810;SDS011;13645;52.460;13.910;2022-08-21T16:31:29;6.35;;;1.20;;
25810;SDS011;13645;52.460;13.910;2022-08-21T16:33:57;7.35;;;1.40;;
25810;SDS011;13645;52.460;13.910;2022-08-21T16:36:24;4.20;;;1.08;;
25810;SDS011;13645;52.460;13.910;2022-08-21T16:38:55;7.70;;;1.70;;
25810;SDS011;13645;52.460;13.910;2022-08-21T16:41:23;7.22;;;2.60;;
25810;SDS011;13645;52.460;13.910;2022-08-21T16:43:53;10.70;;;3.38;;
25810;SDS011;13645;52.460;13.910;2022-08-21T16:46:21;9.25;;;1.90;;
25810;SDS011;13645;52.460;13.910;2022-08-21T16:48:48;4.60;;;1.33;;